Time;durP1;ratioP1;P1;durP2;ratioP2;P2;SDS_P1;SDS_P2;PMS_P1;PMS_P2;Temp;Humidity;BMP_temperature;BMP_pressure;BME280_temperature;BME280_humidity;BME280_pressure;Samples;Min_cycle;Max_cycle;Signal;HPM_P1;HPM_P2
2022/04/14 00:00:55;;;;;;;15.80;11.32;;;14.40;64.10;;;;;;4972663;28;20045;-71
2022/04/14 00:03:21;;;;;;;14.73;10.82;;;14.40;64.50;;;;;;4972501;28;20130;-71
2022/04/14 00:05:47;;;;;;;17.73;11.25;;;14.40;64.10;;;;;;4971913;28;20046;-71
2022/04/14 00:08:12;;;;;;;15.48;10.65;;;14.30;64.40;;;;;;4971995;28;20090;-71
2022/04/14 00:10:38;;;;;;;15.23;10.40;;;14.30;65.40;;;;;;4972588;28;20043;-71
2022/04/14 00:13:04;;;;;;;15.57;10.88;;;14.30;64.20;;;;;;4972690;28;20038;-71
2022/04/14 00:15:30;;;;;;;15.80;11.38;;;14.20;64.80;;;;;;4976101;28;20110;-71
2022/04/14 00:17:55;;;;;;;18.50;11.07;;;14.20;64.50;;;;;;4976007;28;20085;-71
2022/04/14 00:20:22;;;;;;;17.02;11.40;;;14.20;63.10;;;;;;4976008;28;20058;-70
2022/04/14 00:22:47;;;;;;;18.02;11.40;;;14.20;63.20;;;;;;4959195;28;20035;-70
2022/04/14 00:25:13;;;;;;;16.77;11.27;;;14.20;62.90;;;;;;4975727;28;20165;-70
2022/04/14 00:27:39;;;;;;;16.65;12.02;;;14.20;62.90;;;;;;4975060;28;20046;-70
2022/04/14 00:30:06;;;;;;;19.48;12.55;;;14.20;62.70;;;;;;4958404;28;20061;-70
2022/04/14 00:32:32;;;;;;;17.67;12.82;;;14.20;62.90;;;;;;4958909;28;20432;-70
2022/04/14 00:34:58;;;;;;;17.77;12.52;;;14.20;62.80;;;;;;4975772;28;20061;-70
2022/04/14 00:37:23;;;;;;;19.67;12.52;;;14.10;62.30;;;;;;4958120;28;20483;-70
2022/04/14 00:39:52;;;;;;;18.02;13.43;;;14.10;62.50;;;;;;4975550;28;20115;-70
2022/04/14 00:42:17;;;;;;;17.58;12.20;;;14.10;62.70;;;;;;4971677;28;20035;-71
2022/04/14 00:44:43;;;;;;;18.25;12.65;;;14.10;62.70;;;;;;4975002;28;20517;-70
2022/04/14 00:47:12;;;;;;;18.13;12.10;;;14.00;63.60;;;;;;4974950;28;20541;-70
2022/04/14 00:49:39;;;;;;;15.50;12.07;;;14.00;64.10;;;;;;4975338;28;20457;-70
2022/04/14 00:52:05;;;;;;;17.48;11.68;;;14.00;63.20;;;;;;4975516;28;20039;-70
2022/04/14 00:54:31;;;;;;;14.45;11.55;;;14.00;63.30;;;;;;4973658;28;20055;-71
2022/04/14 00:57:01;;;;;;;18.23;11.55;;;14.00;62.90;;;;;;4975318;28;20057;-70
2022/04/14 00:59:28;;;;;;;15.75;11.95;;;13.90;62.70;;;;;;4974708;28;20041;-70
2022/04/14 01:01:54;;;;;;;22.20;13.00;;;13.90;63.60;;;;;;4975418;28;20415;-71
2022/04/14 01:04:20;;;;;;;19.38;11.75;;;13.80;62.50;;;;;;4956776;28;20046;-71
2022/04/14 01:06:46;;;;;;;17.30;11.40;;;13.70;62.90;;;;;;4975314;28;20093;-71
2022/04/14 01:09:16;;;;;;;18.17;12.05;;;13.80;62.90;;;;;;4975046;28;20364;-71
2022/04/14 01:11:51;;;;;;;15.00;11.98;;;13.80;63.40;;;;;;4955031;28;20115;-71
2022/04/14 01:14:23;;;;;;;18.58;11.80;;;13.70;63.30;;;;;;4973297;28;20486;-71
2022/04/14 01:16:49;;;;;;;21.30;12.57;;;13.80;63.10;;;;;;4970186;28;20122;-72
2022/04/14 01:19:15;;;;;;;18.77;11.75;;;13.70;63.60;;;;;;4957328;28;20491;-83
2022/04/14 01:21:46;;;;;;;16.48;11.57;;;13.80;64.20;;;;;;4957772;28;20038;-71
2022/04/14 01:24:14;;;;;;;17.50;11.43;;;13.80;63.10;;;;;;4972528;28;20039;-71
2022/04/14 01:26:40;;;;;;;19.23;12.10;;;13.70;62.70;;;;;;4968460;28;20057;-72
2022/04/14 01:29:18;;;;;;;19.45;12.18;;;13.70;63.20;;;;;;4974694;28;20031;-72
2022/04/14 01:31:44;;;;;;;17.20;11.05;;;13.70;63.50;;;;;;4974972;28;20041;-72
2022/04/14 01:34:09;;;;;;;17.98;12.05;;;13.70;64.00;;;;;;4972150;28;20398;-71
2022/04/14 01:36:35;;;;;;;16.90;12.88;;;13.70;64.00;;;;;;4974048;28;20035;-70
2022/04/14 01:39:00;;;;;;;23.52;13.35;;;13.50;63.50;;;;;;4974828;28;20047;-70
2022/04/14 01:41:26;;;;;;;21.15;12.77;;;13.40;64.00;;;;;;4974516;28;20039;-70
2022/04/14 01:43:52;;;;;;;21.38;14.80;;;13.30;63.60;;;;;;4972812;28;20058;-71
2022/04/14 01:46:18;;;;;;;18.95;13.70;;;13.30;64.20;;;;;;4974210;28;20522;-71
2022/04/14 01:48:43;;;;;;;19.35;13.90;;;13.20;64.10;;;;;;4974807;28;20058;-71
2022/04/14 01:51:10;;;;;;;22.40;14.80;;;13.20;64.20;;;;;;4955313;28;20042;-70
2022/04/14 01:53:35;;;;;;;24.58;15.05;;;13.20;64.50;;;;;;4973456;28;20043;-79
2022/04/14 01:56:01;;;;;;;24.85;15.05;;;13.10;64.50;;;;;;4973443;28;20057;-78
2022/04/14 01:58:27;;;;;;;27.98;15.68;;;13.00;65.00;;;;;;4955587;28;20042;-77
2022/04/14 02:00:52;;;;;;;23.17;16.13;;;13.00;65.10;;;;;;4974348;28;20043;-77
2022/04/14 02:03:18;;;;;;;28.92;17.70;;;13.00;65.70;;;;;;4956153;28;20041;-78
2022/04/14 02:05:43;;;;;;;30.80;17.70;;;12.90;65.30;;;;;;4973091;28;20472;-79
2022/04/14 02:08:09;;;;;;;21.63;16.30;;;12.80;65.70;;;;;;4973295;28;20467;-79
2022/04/14 02:10:35;;;;;;;23.70;17.58;;;12.80;65.70;;;;;;4973122;28;20099;-79
2022/04/14 02:13:01;;;;;;;26.33;16.80;;;12.80;65.70;;;;;;4972206;28;20466;-80
2022/04/14 02:15:26;;;;;;;23.63;16.65;;;12.90;65.90;;;;;;4972438;28;20419;-79
2022/04/14 02:17:52;;;;;;;31.38;18.15;;;13.00;67.10;;;;;;4973568;28;20042;-79
2022/04/14 02:20:18;;;;;;;30.40;19.00;;;13.00;65.90;;;;;;4973172;28;20118;-80
2022/04/14 02:22:44;;;;;;;32.75;19.40;;;13.00;65.60;;;;;;4973963;28;20142;-79
2022/04/14 02:25:10;;;;;;;26.05;17.38;;;12.90;66.10;;;;;;4972103;28;20118;-79
2022/04/14 02:27:36;;;;;;;30.60;17.25;;;12.90;66.30;;;;;;4973294;28;20026;-80
2022/04/14 02:30:02;;;;;;;24.77;17.75;;;13.00;67.30;;;;;;4973011;28;20395;-79
2022/04/14 02:32:28;;;;;;;27.10;17.63;;;13.10;67.40;;;;;;4971818;28;20113;-79
2022/04/14 02:34:53;;;;;;;26.13;18.02;;;13.10;67.00;;;;;;4972949;28;20094;-80
2022/04/14 02:37:19;;;;;;;27.90;19.88;;;13.20;67.50;;;;;;4972751;28;20058;-81
2022/04/14 02:39:44;;;;;;;26.58;18.90;;;13.10;67.50;;;;;;4973362;28;20045;-81
2022/04/14 02:42:10;;;;;;;24.38;18.52;;;13.10;67.20;;;;;;4954974;28;20038;-79
2022/04/14 02:44:36;;;;;;;26.15;17.38;;;13.20;67.80;;;;;;4972398;28;20506;-80
2022/04/14 02:47:01;;;;;;;30.85;19.30;;;13.20;67.90;;;;;;4973745;28;20086;-80
2022/04/14 02:49:27;;;;;;;26.63;18.38;;;13.20;67.50;;;;;;4973496;28;20035;-79
2022/04/14 02:51:53;;;;;;;26.05;19.38;;;13.20;68.10;;;;;;4972656;28;20046;-80
2022/04/14 02:54:19;;;;;;;28.38;18.10;;;13.20;67.60;;;;;;4972463;28;20038;-80
2022/04/14 02:56:44;;;;;;;28.48;19.05;;;13.20;68.10;;;;;;4973050;28;20106;-79
2022/04/14 02:59:10;;;;;;;33.20;20.48;;;13.20;68.40;;;;;;4973042;28;20043;-79
2022/04/14 03:01:35;;;;;;;32.05;22.08;;;13.20;68.50;;;;;;4955853;28;20376;-78
2022/04/14 03:04:01;;;;;;;33.30;20.52;;;13.10;69.10;;;;;;4972218;28;20046;-80
2022/04/14 03:06:28;;;;;;;28.48;20.08;;;13.10;68.70;;;;;;4972413;28;20403;-80
2022/04/14 03:08:53;;;;;;;29.60;21.67;;;13.10;69.50;;;;;;4973123;28;20042;-80
2022/04/14 03:11:19;;;;;;;32.50;23.88;;;13.00;69.50;;;;;;4972602;28;20035;-80
2022/04/14 03:13:45;;;;;;;33.22;24.70;;;13.00;69.80;;;;;;4972436;28;20044;-81
2022/04/14 03:16:11;;;;;;;31.52;23.23;;;12.90;69.90;;;;;;4972363;28;20061;-80
2022/04/14 03:18:36;;;;;;;31.67;22.63;;;12.90;70.30;;;;;;4972673;28;20042;-81
2022/04/14 03:21:03;;;;;;;34.72;24.63;;;12.90;70.80;;;;;;4972217;28;20121;-81
2022/04/14 03:23:29;;;;;;;37.35;26.58;;;12.80;70.80;;;;;;4971075;28;20049;-80
2022/04/14 03:25:54;;;;;;;33.75;25.27;;;12.70;71.10;;;;;;4953729;28;20038;-81
2022/04/14 03:28:20;;;;;;;40.10;26.92;;;12.80;71.10;;;;;;4972212;28;20066;-80
2022/04/14 03:30:45;;;;;;;36.97;27.90;;;12.70;71.30;;;;;;4972268;28;20062;-79
2022/04/14 03:33:11;;;;;;;37.53;26.85;;;12.60;72.00;;;;;;4971319;28;20513;-80
2022/04/14 03:35:37;;;;;;;40.28;27.75;;;12.60;72.30;;;;;;4971983;28;20046;-85
2022/04/14 03:38:02;;;;;;;36.40;27.55;;;12.60;72.30;;;;;;4971712;28;20034;-80
2022/04/14 03:40:28;;;;;;;33.65;25.38;;;12.60;72.40;;;;;;4964935;28;20514;-79
2022/04/14 03:42:55;;;;;;;33.50;26.88;;;12.70;72.80;;;;;;4972561;28;20039;-79
2022/04/14 03:45:21;;;;;;;36.17;25.90;;;12.70;72.90;;;;;;4971522;28;20059;-79
2022/04/14 03:47:46;;;;;;;37.78;28.27;;;12.80;73.00;;;;;;4971838;28;20031;-79
2022/04/14 03:50:12;;;;;;;42.15;28.13;;;12.80;72.70;;;;;;4975332;28;20035;-80
2022/04/14 03:52:38;;;;;;;39.50;27.63;;;12.70;72.90;;;;;;4969985;28;20438;-70
2022/04/14 03:55:05;;;;;;;38.13;25.95;;;12.70;73.00;;;;;;4975002;28;20038;-70
2022/04/14 03:57:31;;;;;;;32.15;25.30;;;12.70;73.90;;;;;;4974889;28;20085;-71
2022/04/14 03:59:57;;;;;;;34.92;27.20;;;12.80;73.60;;;;;;4975878;28;20384;-71
2022/04/14 04:02:22;;;;;;;33.25;25.33;;;12.70;73.90;;;;;;4976047;28;20042;-70
2022/04/14 04:04:48;;;;;;;32.15;26.40;;;12.60;74.10;;;;;;4974997;28;20051;-70
2022/04/14 04:07:14;;;;;;;39.97;26.17;;;12.70;74.20;;;;;;4975209;28;20038;-69
2022/04/14 04:09:39;;;;;;;39.00;26.98;;;12.60;74.40;;;;;;4975899;28;20039;-70
2022/04/14 04:12:06;;;;;;;38.95;28.85;;;12.60;74.90;;;;;;4974745;28;20527;-69
2022/04/14 04:14:31;;;;;;;38.90;30.25;;;12.50;75.60;;;;;;4958380;28;20062;-70
2022/04/14 04:16:59;;;;;;;42.72;31.13;;;12.40;75.60;;;;;;4975622;28;20349;-70
2022/04/14 04:19:24;;;;;;;43.22;31.35;;;12.40;76.10;;;;;;4976134;28;20035;-70
2022/04/14 04:21:50;;;;;;;38.88;29.08;;;12.30;76.60;;;;;;4976028;28;20114;-70
2022/04/14 04:24:16;;;;;;;45.10;29.90;;;12.30;77.00;;;;;;4974675;28;20050;-70
2022/04/14 04:26:42;;;;;;;40.15;29.05;;;12.30;76.30;;;;;;4974504;28;20038;-70
2022/04/14 04:29:26;;;;;;;38.40;28.85;;;12.30;76.30;;;;;;4975021;28;20039;-70
2022/04/14 04:31:51;;;;;;;39.17;31.10;;;12.30;76.30;;;;;;4972077;28;21215;-70
2022/04/14 04:34:17;;;;;;;42.58;32.05;;;12.30;77.10;;;;;;4975033;28;20035;-71
2022/04/14 04:36:43;;;;;;;42.83;32.78;;;12.20;77.40;;;;;;4975246;28;20054;-70
2022/04/14 04:39:09;;;;;;;41.25;33.20;;;12.20;77.30;;;;;;4975080;28;20034;-70
2022/04/14 04:41:34;;;;;;;43.65;29.55;;;12.10;77.60;;;;;;4974386;28;20117;-72
2022/04/14 04:44:00;;;;;;;38.45;26.13;;;12.10;78.00;;;;;;4974220;28;20045;-72
2022/04/14 04:46:26;;;;;;;41.42;28.08;;;12.10;77.90;;;;;;4974795;28;20430;-80
2022/04/14 04:48:51;;;;;;;38.33;27.50;;;12.20;77.70;;;;;;4974492;28;20027;-79
2022/04/14 04:51:17;;;;;;;39.30;31.17;;;12.30;77.50;;;;;;4957797;28;20102;-80
2022/04/14 04:53:43;;;;;;;34.72;26.52;;;12.40;77.60;;;;;;4973768;28;20030;-79
2022/04/14 04:56:09;;;;;;;37.50;28.33;;;12.30;77.30;;;;;;4975183;28;20106;-79
2022/04/14 04:58:35;;;;;;;44.63;31.35;;;12.40;77.20;;;;;;4972829;28;20082;-80
2022/04/14 05:01:00;;;;;;;37.28;28.73;;;12.40;77.90;;;;;;4974613;28;20043;-73
2022/04/14 05:03:26;;;;;;;46.20;31.90;;;12.40;77.90;;;;;;4973478;28;20091;-72
2022/04/14 05:05:52;;;;;;;43.30;31.30;;;12.40;78.20;;;;;;4974849;28;20045;-72
2022/04/14 05:08:17;;;;;;;43.53;30.73;;;12.30;78.30;;;;;;4973666;28;20058;-72
2022/04/14 05:10:43;;;;;;;37.80;28.45;;;12.30;78.90;;;;;;4974821;28;20031;-72
2022/04/14 05:13:08;;;;;;;43.25;29.98;;;12.30;78.70;;;;;;4972210;28;20460;-72
2022/04/14 05:15:36;;;;;;;40.42;29.92;;;12.30;78.40;;;;;;4972964;28;20739;-72
2022/04/14 05:18:02;;;;;;;36.85;27.80;;;12.30;78.50;;;;;;4971377;28;20034;-80
2022/04/14 05:20:28;;;;;;;45.25;30.60;;;12.30;78.60;;;;;;4972814;28;20081;-72
2022/04/14 05:22:53;;;;;;;38.78;26.80;;;12.30;78.70;;;;;;4955665;28;20074;-72
2022/04/14 05:25:19;;;;;;;43.97;30.63;;;12.40;78.50;;;;;;4974231;28;20081;-72
2022/04/14 05:27:45;;;;;;;38.65;29.58;;;12.30;78.60;;;;;;4973085;28;20035;-72
2022/04/14 05:30:11;;;;;;;43.08;29.27;;;12.30;78.50;;;;;;4971332;28;20042;-80
2022/04/14 05:32:38;;;;;;;36.65;29.20;;;12.20;79.00;;;;;;4973030;28;20043;-79
2022/04/14 05:35:06;;;;;;;42.05;28.38;;;12.10;79.60;;;;;;4973671;28;20518;-81
2022/04/14 05:37:32;;;;;;;39.05;30.38;;;12.20;79.40;;;;;;4973131;28;20048;-83
2022/04/14 05:39:57;;;;;;;42.33;31.10;;;12.10;79.20;;;;;;4972845;28;20122;-84
2022/04/14 05:42:23;;;;;;;35.00;28.48;;;12.10;79.40;;;;;;4971961;28;20102;-84
2022/04/14 05:44:49;;;;;;;39.22;28.13;;;12.20;79.60;;;;;;4972629;28;20039;-84
2022/04/14 05:47:14;;;;;;;34.35;27.80;;;12.20;79.00;;;;;;4973813;28;20046;-84
2022/04/14 05:49:40;;;;;;;42.10;28.73;;;12.30;79.00;;;;;;4974295;28;20111;-84
2022/04/14 05:52:06;;;;;;;36.17;28.20;;;12.40;78.20;;;;;;4970918;28;20042;-75
2022/04/14 05:54:32;;;;;;;37.33;26.63;;;12.40;78.70;;;;;;4974274;28;20035;-75
2022/04/14 05:56:57;;;;;;;40.53;28.65;;;12.50;79.20;;;;;;4974327;28;20043;-74
2022/04/14 05:59:23;;;;;;;33.05;18.70;;;12.60;78.00;;;;;;4974066;28;20043;-76
2022/04/14 06:01:48;;;;;;;32.45;23.83;;;12.70;78.70;;;;;;4974846;28;20035;-75
2022/04/14 06:04:14;;;;;;;31.23;24.15;;;12.80;77.00;;;;;;4974459;28;20054;-77
2022/04/14 06:06:41;;;;;;;35.60;24.63;;;13.00;76.70;;;;;;4974542;28;20039;-76
2022/04/14 06:09:06;;;;;;;33.38;25.92;;;13.00;76.30;;;;;;4984586;23;20070;-83
2022/04/14 06:14:38;;;;;;;33.28;25.30;;;13.20;75.90;;;;;;4970661;28;20062;-75
2022/04/14 06:17:04;;;;;;;36.92;27.17;;;13.20;75.60;;;;;;4974153;28;20035;-83
2022/04/14 06:19:30;;;;;;;36.50;27.92;;;13.20;75.90;;;;;;4957833;28;20121;-75
2022/04/14 06:21:55;;;;;;;35.08;26.83;;;13.20;75.90;;;;;;4955725;28;20122;-83
2022/04/14 06:24:21;;;;;;;35.28;26.45;;;13.30;75.50;;;;;;4968478;28;20043;-74
2022/04/14 06:26:48;;;;;;;32.60;25.55;;;13.40;75.80;;;;;;4957353;28;20047;-77
2022/04/14 06:29:14;;;;;;;38.22;28.60;;;13.40;75.30;;;;;;4954608;28;20100;-84
2022/04/14 06:31:39;;;;;;;33.08;26.58;;;13.50;75.60;;;;;;4974699;28;20122;-78
2022/04/14 06:34:05;;;;;;;39.03;26.38;;;13.60;75.50;;;;;;4980661;28;20095;-75
2022/04/14 06:36:32;;;;;;;32.88;23.90;;;13.60;74.60;;;;;;4973906;28;20117;-81
2022/04/14 06:38:57;;;;;;;33.05;23.73;;;13.70;74.90;;;;;;4966531;28;20053;-82
2022/04/14 06:41:23;;;;;;;30.10;23.67;;;13.80;74.40;;;;;;4970543;28;20035;-78
2022/04/14 06:43:49;;;;;;;34.75;24.45;;;13.90;74.70;;;;;;4971503;28;20050;-79
2022/04/14 06:46:18;;;;;;;28.15;21.63;;;13.90;73.90;;;;;;4972269;28;20376;-71
2022/04/14 06:48:44;;;;;;;31.02;23.05;;;14.00;73.20;;;;;;4967158;28;20058;-72
2022/04/14 06:51:10;;;;;;;29.67;22.35;;;14.10;73.30;;;;;;4971954;28;20057;-72
2022/04/14 06:53:37;;;;;;;31.85;21.25;;;14.10;72.80;;;;;;4965396;28;20046;-78
2022/04/14 06:56:04;;;;;;;30.27;20.58;;;14.20;73.50;;;;;;4967046;28;20739;-78
2022/04/14 06:58:30;;;;;;;30.17;20.85;;;14.30;73.20;;;;;;4963624;28;20046;-77
2022/04/14 07:00:55;;;;;;;27.70;21.30;;;14.40;72.60;;;;;;4967946;28;20031;-78
2022/04/14 07:03:37;;;;;;;28.92;20.50;;;14.50;72.60;;;;;;4964268;28;20078;-77
2022/04/14 07:06:04;;;;;;;28.20;20.08;;;14.60;72.20;;;;;;4969111;28;20517;-77
2022/04/14 07:08:30;;;;;;;31.38;22.00;;;14.70;72.00;;;;;;4972783;28;20042;-77
2022/04/14 07:10:57;;;;;;;28.63;20.17;;;14.70;71.20;;;;;;4972626;28;20042;-77
2022/04/14 07:13:23;;;;;;;25.50;18.35;;;14.80;70.20;;;;;;4973340;28;20035;-77
2022/04/14 07:15:48;;;;;;;22.23;17.50;;;14.90;70.10;;;;;;4969610;28;20463;-78
2022/04/14 07:18:14;;;;;;;23.23;18.00;;;14.90;69.80;;;;;;4969479;28;20035;-77
2022/04/14 07:20:40;;;;;;;24.67;17.98;;;15.00;69.60;;;;;;4965656;28;20484;-77
2022/04/14 07:23:08;;;;;;;22.25;17.48;;;15.10;69.50;;;;;;4968719;28;20038;-78
2022/04/14 07:25:34;;;;;;;22.55;18.05;;;15.10;68.90;;;;;;4969462;28;20039;-71
2022/04/14 07:28:01;;;;;;;20.35;15.73;;;15.20;68.40;;;;;;4967831;28;20043;-72
2022/04/14 07:30:27;;;;;;;18.83;13.65;;;15.20;68.70;;;;;;4965788;28;20038;-72
2022/04/14 07:32:53;;;;;;;16.08;12.57;;;15.30;69.30;;;;;;4964860;28;20104;-72
2022/04/14 07:35:22;;;;;;;19.70;14.95;;;15.50;69.20;;;;;;4963962;28;20498;-72
2022/04/14 07:37:48;;;;;;;23.40;14.73;;;15.50;68.40;;;;;;4965107;28;20052;-71
2022/04/14 07:40:14;;;;;;;19.05;13.32;;;15.70;67.70;;;;;;4962525;28;20035;-72
2022/04/14 07:42:42;;;;;;;19.33;14.57;;;15.80;68.20;;;;;;4945530;28;20713;-72
2022/04/14 07:45:10;;;;;;;24.13;16.75;;;15.90;67.30;;;;;;4973355;28;20043;-72
2022/04/14 07:47:36;;;;;;;22.98;16.38;;;15.90;66.60;;;;;;4973217;28;20034;-77
2022/04/14 07:50:02;;;;;;;27.48;15.10;;;16.00;66.80;;;;;;4955719;28;20042;-77
2022/04/14 07:52:42;;;;;;;24.88;15.98;;;16.10;67.10;;;;;;4971849;28;20368;-73
2022/04/14 07:55:07;;;;;;;21.73;14.03;;;16.10;66.40;;;;;;4969024;28;20051;-77
2022/04/14 07:57:33;;;;;;;24.92;15.93;;;16.20;66.80;;;;;;4974498;28;20839;-74
2022/04/14 07:59:59;;;;;;;16.88;11.52;;;16.30;66.80;;;;;;4972481;28;20407;-74
2022/04/14 08:02:25;;;;;;;281.75;240.10;;;16.40;67.30;;;;;;4971700;28;20038;-79
2022/04/14 08:04:51;;;;;;;290.00;243.10;;;16.60;67.40;;;;;;4970281;28;20043;-79
2022/04/14 08:07:17;;;;;;;37.70;29.00;;;16.70;67.30;;;;;;4952251;28;20047;-80
2022/04/14 08:10:13;;;;;;;22.80;15.57;;;16.90;65.40;;;;;;4954133;28;20101;-80
2022/04/14 08:12:38;;;;;;;19.83;13.95;;;16.80;65.20;;;;;;4972902;28;20039;-80
2022/04/14 08:15:04;;;;;;;19.73;13.85;;;17.00;65.70;;;;;;4971759;28;20042;-81
2022/04/14 08:17:32;;;;;;;19.45;13.25;;;17.10;65.00;;;;;;4960607;28;20739;-74
2022/04/14 08:19:59;;;;;;;22.38;12.77;;;17.10;65.20;;;;;;4961719;28;20136;-74
2022/04/14 08:22:25;;;;;;;18.67;12.77;;;17.30;64.90;;;;;;4944820;29;20047;-73
2022/04/14 08:24:51;;;;;;;17.08;11.70;;;17.40;65.10;;;;;;4964476;28;20039;-73
2022/04/14 08:27:18;;;;;;;15.25;11.05;;;17.50;64.70;;;;;;4963618;28;20043;-74
2022/04/14 08:29:43;;;;;;;17.63;11.43;;;17.70;65.80;;;;;;4962387;28;20105;-75
2022/04/14 08:32:09;;;;;;;16.65;11.15;;;17.80;64.60;;;;;;4964886;28;20086;-75
2022/04/14 08:34:36;;;;;;;18.08;11.07;;;18.00;63.30;;;;;;4965570;28;20483;-75
2022/04/14 08:37:02;;;;;;;18.02;12.25;;;18.10;62.90;;;;;;4948118;28;20498;-75
2022/04/14 08:39:29;;;;;;;14.63;9.80;;;18.10;62.20;;;;;;4971799;28;20047;-81
2022/04/14 08:42:06;;;;;;;13.77;9.00;;;18.20;63.30;;;;;;4967133;28;20041;-80
2022/04/14 08:44:36;;;;;;;14.65;9.13;;;18.40;63.70;;;;;;4965317;28;20440;-80
2022/04/14 08:47:02;;;;;;;20.02;12.43;;;18.60;63.60;;;;;;4965392;28;20550;-73
2022/04/14 08:49:30;;;;;;;13.45;9.63;;;18.70;59.80;;;;;;4949071;28;20037;-74
2022/04/14 08:51:56;;;;;;;13.23;9.00;;;18.80;61.00;;;;;;4970434;28;20106;-73
2022/04/14 08:54:23;;;;;;;13.30;9.30;;;18.90;61.10;;;;;;4978382;28;20058;-73
2022/04/14 08:56:51;;;;;;;18.50;11.82;;;19.10;59.50;;;;;;4994816;28;20057;-80
2022/04/14 08:59:18;;;;;;;16.92;10.13;;;19.20;57.70;;;;;;4995084;28;20101;-79
2022/04/14 09:01:44;;;;;;;18.55;11.63;;;19.30;59.30;;;;;;4977901;28;20125;-80
2022/04/14 09:04:12;;;;;;;14.27;8.98;;;19.40;57.00;;;;;;4974895;28;20126;-81
2022/04/14 09:06:37;;;;;;;18.13;10.77;;;19.50;58.50;;;;;;4956148;28;20047;-81
2022/04/14 09:09:03;;;;;;;12.40;8.30;;;19.60;56.70;;;;;;4971362;28;20038;-80
2022/04/14 09:11:32;;;;;;;20.10;10.27;;;19.70;57.70;;;;;;4979361;28;20488;-80
2022/04/14 09:13:59;;;;;;;17.17;9.57;;;19.80;54.20;;;;;;4964279;28;20106;-80
2022/04/14 09:16:26;;;;;;;16.65;9.40;;;19.90;55.40;;;;;;4969216;28;20106;-81
2022/04/14 09:18:53;;;;;;;12.93;7.75;;;20.00;56.10;;;;;;4961470;28;20031;-81
2022/04/14 09:21:19;;;;;;;16.67;10.55;;;20.10;55.90;;;;;;4965741;28;20400;-81
2022/04/14 09:23:52;;;;;;;17.25;11.18;;;20.30;53.80;;;;;;4942920;28;20045;-81
2022/04/14 09:26:23;;;;;;;18.67;11.20;;;20.40;53.60;;;;;;4963372;28;20055;-81
2022/04/14 09:29:07;;;;;;;18.38;9.68;;;20.40;52.60;;;;;;4964532;28;20116;-80
2022/04/14 09:31:50;;;;;;;16.13;8.35;;;20.50;53.20;;;;;;4947135;28;20530;-80
2022/04/14 09:34:18;;;;;;;20.58;11.15;;;20.70;54.40;;;;;;4963914;28;20089;-79
2022/04/14 09:37:05;;;;;;;18.45;9.52;;;20.90;51.70;;;;;;4946551;28;20047;-79
2022/04/14 09:40:10;;;;;;;16.40;9.50;;;21.10;53.00;;;;;;4963315;28;20533;-80
2022/04/14 09:42:36;;;;;;;20.20;12.23;;;21.20;53.60;;;;;;4947126;28;20050;-80
2022/04/14 09:45:22;;;;;;;20.20;11.55;;;21.40;49.40;;;;;;4965328;28;20125;-82
2022/04/14 09:47:50;;;;;;;25.35;12.20;;;21.40;49.40;;;;;;4966713;28;20039;-76
2022/04/14 09:50:35;;;;;;;20.00;11.40;;;21.50;49.50;;;;;;4961983;28;20031;-74
2022/04/14 09:53:12;;;;;;;18.25;10.75;;;21.50;49.80;;;;;;4967166;28;20141;-74
2022/04/14 09:55:39;;;;;;;17.90;9.75;;;21.70;48.70;;;;;;4970978;28;20093;-75
2022/04/14 09:58:11;;;;;;;16.50;8.45;;;21.90;50.00;;;;;;4969919;28;20093;-73
2022/04/14 10:00:43;;;;;;;12.07;7.18;;;22.10;50.40;;;;;;4948375;28;20041;-75
2022/04/14 10:03:25;;;;;;;12.68;7.80;;;22.40;50.60;;;;;;4966910;28;20122;-81
2022/04/14 10:05:56;;;;;;;22.10;11.75;;;22.60;49.60;;;;;;4967816;28;20031;-80
2022/04/14 10:08:25;;;;;;;20.60;11.07;;;22.70;46.70;;;;;;4963441;28;20050;-82
2022/04/14 10:11:07;;;;;;;26.48;17.02;;;22.80;48.90;;;;;;4947182;28;20043;-81
2022/04/14 10:13:40;;;;;;;23.45;14.43;;;22.90;49.10;;;;;;4944261;28;20038;-83
2022/04/14 10:16:10;;;;;;;25.00;14.05;;;23.10;49.90;;;;;;4955043;28;20364;-75
2022/04/14 10:18:36;;;;;;;26.23;15.70;;;23.30;49.80;;;;;;4948861;28;20070;-74
2022/04/14 10:21:05;;;;;;;32.97;15.63;;;23.50;48.70;;;;;;4967090;28;20518;-74
2022/04/14 10:23:33;;;;;;;23.33;13.48;;;23.60;47.30;;;;;;4945188;28;20050;-74
2022/04/14 10:26:00;;;;;;;23.58;14.82;;;23.80;48.60;;;;;;4948082;28;20069;-74
2022/04/14 10:28:28;;;;;;;34.63;17.92;;;23.90;47.70;;;;;;4972461;28;20039;-74
2022/04/14 10:30:56;;;;;;;21.15;12.85;;;24.10;46.00;;;;;;4965377;28;20062;-73
2022/04/14 10:33:22;;;;;;;30.33;14.57;;;24.10;47.50;;;;;;4951959;28;20395;-83
2022/04/14 10:36:03;;;;;;;36.13;14.90;;;24.30;46.00;;;;;;4960840;28;20369;-81
2022/04/14 10:38:37;;;;;;;23.70;13.98;;;24.40;45.00;;;;;;4963404;28;20046;-75
2022/04/14 10:41:06;;;;;;;36.70;14.95;;;24.50;46.10;;;;;;4947657;28;20073;-74
2022/04/14 10:43:34;;;;;;;24.93;14.33;;;24.60;45.00;;;;;;4946790;28;20046;-85
2022/04/14 10:46:01;;;;;;;20.33;13.05;;;24.60;44.50;;;;;;4943772;28;20122;-73
2022/04/14 10:48:29;;;;;;;19.05;11.82;;;24.80;43.90;;;;;;4963912;28;20042;-74
2022/04/14 10:51:13;;;;;;;23.20;12.90;;;24.90;44.00;;;;;;4958180;28;20503;-73
2022/04/14 10:54:00;;;;;;;27.17;15.18;;;25.00;42.70;;;;;;4967687;28;20058;-72
2022/04/14 10:56:34;;;;;;;23.63;14.00;;;25.10;42.50;;;;;;4972517;28;20035;-72
2022/04/14 10:59:01;;;;;;;30.48;14.90;;;25.10;43.10;;;;;;4967756;28;20395;-73
2022/04/14 11:01:45;;;;;;;21.95;14.25;;;25.20;43.30;;;;;;4971216;28;20428;-73
2022/04/14 11:04:27;;;;;;;20.10;12.32;;;25.30;43.70;;;;;;4966367;28;20050;-73
2022/04/14 11:06:59;;;;;;;23.40;15.50;;;25.50;43.60;;;;;;4972657;28;20051;-74
2022/04/14 11:12:06;;;;;;;24.13;13.52;;;25.70;42.70;;;;;;4972887;28;20042;-74
2022/04/14 11:14:37;;;;;;;21.65;13.63;;;25.80;42.80;;;;;;4970906;28;20038;-75
2022/04/14 11:17:03;;;;;;;22.35;13.13;;;25.90;41.80;;;;;;4971519;28;20392;-75
2022/04/14 11:19:30;;;;;;;24.20;14.88;;;26.10;42.30;;;;;;4971395;28;20063;-73
2022/04/14 11:22:02;;;;;;;23.08;14.80;;;26.10;40.90;;;;;;4965729;28;20046;-73
2022/04/14 11:24:36;;;;;;;23.90;15.43;;;26.10;39.80;;;;;;4963420;28;20054;-73
2022/04/14 11:27:14;;;;;;;27.50;14.18;;;26.30;40.50;;;;;;4963547;28;20119;-73
2022/04/14 11:29:42;;;;;;;27.20;15.38;;;26.40;39.60;;;;;;4967730;28;20053;-82
2022/04/14 11:32:09;;;;;;;26.35;14.27;;;26.40;39.00;;;;;;4943335;28;20035;-73
2022/04/14 11:35:13;;;;;;;30.85;15.07;;;26.60;40.30;;;;;;4943764;28;20059;-74
2022/04/14 11:37:45;;;;;;;25.15;14.25;;;27.00;39.60;;;;;;4952397;28;20027;-82
2022/04/14 11:40:21;;;;;;;29.25;17.13;;;27.60;39.40;;;;;;4967710;28;20049;-82
2022/04/14 11:42:51;;;;;;;30.30;16.52;;;28.00;37.70;;;;;;4965416;28;20031;-82
2022/04/14 11:45:25;;;;;;;28.15;16.85;;;28.20;36.00;;;;;;4968124;28;20077;-82
2022/04/14 11:47:54;;;;;;;35.45;19.48;;;28.40;35.90;;;;;;4965740;28;20031;-81
2022/04/14 11:50:25;;;;;;;31.42;17.73;;;28.50;35.50;;;;;;4947259;28;20037;-83
2022/04/14 11:53:02;;;;;;;30.88;17.77;;;28.70;35.50;;;;;;4966246;28;20487;-82
2022/04/14 11:55:39;;;;;;;40.03;19.27;;;28.90;35.10;;;;;;4969816;28;20121;-83
2022/04/14 11:58:13;;;;;;;31.77;17.50;;;29.00;35.00;;;;;;4965534;28;20054;-81
2022/04/14 12:00:46;;;;;;;33.03;18.10;;;29.00;35.70;;;;;;4971032;28;20090;-74
2022/04/14 12:03:12;;;;;;;38.20;17.98;;;29.00;36.10;;;;;;4971922;28;20106;-74
2022/04/14 12:05:40;;;;;;;45.85;18.30;;;29.00;34.60;;;;;;4948761;28;20043;-75
2022/04/14 12:08:09;;;;;;;26.88;16.05;;;29.10;35.30;;;;;;4970809;28;20071;-76
2022/04/14 12:10:35;;;;;;;34.03;16.17;;;29.50;32.90;;;;;;4949591;28;20062;-75
2022/04/14 12:13:08;;;;;;;26.42;16.27;;;29.80;34.50;;;;;;4966473;28;20038;-75
2022/04/14 12:15:34;;;;;;;27.23;15.32;;;29.80;34.80;;;;;;4974761;28;20058;-76
2022/04/14 12:18:09;;;;;;;28.80;15.25;;;30.00;34.60;;;;;;4962859;28;20043;-76
2022/04/14 12:20:47;;;;;;;26.63;15.18;;;30.00;32.90;;;;;;4975233;28;20042;-77
2022/04/14 12:23:13;;;;;;;38.83;16.38;;;30.20;32.00;;;;;;4955718;28;20047;-83
2022/04/14 12:25:39;;;;;;;26.10;15.30;;;30.20;32.00;;;;;;4976465;28;20045;-82
2022/04/14 12:28:19;;;;;;;24.17;14.20;;;30.40;32.10;;;;;;4958462;28;20038;-76
2022/04/14 12:30:47;;;;;;;24.88;15.23;;;30.50;31.70;;;;;;4957600;28;20082;-76
2022/04/14 12:33:12;;;;;;;28.40;13.90;;;30.50;31.40;;;;;;4975294;28;20047;-77
2022/04/14 12:35:40;;;;;;;24.50;14.77;;;30.60;32.40;;;;;;4972112;28;20042;-76
2022/04/14 12:38:17;;;;;;;25.67;14.52;;;30.60;30.60;;;;;;4972272;28;20050;-75